createdAt,value
2022-08-20T00:04:47.224Z,21.54
2022-08-20T00:10:19.669Z,21.40
2022-08-20T00:15:11.906Z,21.35
2022-08-20T00:20:11.844Z,21.36
2022-08-20T00:25:11.781Z,21.25
2022-08-20T00:30:11.695Z,21.18
2022-08-20T00:35:13.113Z,21.17
2022-08-20T00:40:22.923Z,21.21
2022-08-20T00:45:12.505Z,21.07
2022-08-20T00:50:11.448Z,21.02
2022-08-20T00:55:12.373Z,21.00
2022-08-20T01:00:11.303Z,20.99
2022-08-20T01:05:11.254Z,21.05
2022-08-20T01:10:11.191Z,20.96
2022-08-20T01:15:11.110Z,20.99
2022-08-20T01:20:11.067Z,20.90
2022-08-20T01:25:10.983Z,20.92
2022-08-20T01:30:10.917Z,20.95
2022-08-20T01:35:10.907Z,20.97
2022-08-20T01:40:10.791Z,20.93
2022-08-20T01:45:10.750Z,20.87
2022-08-20T01:50:10.645Z,20.85
2022-08-20T01:55:11.288Z,20.90
2022-08-20T02:00:19.044Z,20.88
2022-08-20T02:05:11.448Z,20.88
2022-08-20T02:10:10.365Z,20.88
2022-08-20T02:15:10.301Z,20.82
2022-08-20T02:20:10.247Z,20.72
2022-08-20T02:25:10.181Z,20.72
2022-08-20T02:30:10.082Z,20.69
2022-08-20T02:35:11.063Z,20.69
2022-08-20T02:40:10.148Z,20.75
2022-08-20T02:45:09.918Z,20.85
2022-08-20T02:50:10.838Z,20.93
2022-08-20T02:55:09.852Z,20.93
2022-08-20T03:00:10.732Z,20.92
2022-08-20T03:05:09.645Z,20.87
2022-08-20T03:10:09.577Z,20.74
2022-08-20T03:15:09.513Z,20.58
2022-08-20T03:20:10.464Z,20.66
2022-08-20T03:25:09.388Z,20.60
2022-08-20T03:30:09.307Z,20.55
2022-08-20T03:35:09.255Z,20.52
2022-08-20T03:40:09.201Z,20.52
2022-08-20T03:45:09.112Z,20.55
2022-08-20T03:50:09.033Z,20.60
2022-08-20T03:55:09.962Z,20.58
2022-08-20T04:00:08.886Z,20.52
2022-08-20T04:05:08.863Z,20.55
2022-08-20T04:10:08.782Z,20.56
2022-08-20T04:15:41.146Z,20.58
2022-08-20T04:20:33.514Z,20.63
2022-08-20T04:25:35.796Z,20.63
2022-08-20T04:30:33.454Z,20.59
2022-08-20T04:35:33.318Z,20.50
2022-08-20T04:40:33.248Z,20.56
2022-08-20T04:45:33.170Z,20.56
2022-08-20T04:50:33.131Z,20.52
2022-08-20T04:55:33.043Z,20.60
2022-08-20T05:00:33.702Z,20.60
2022-08-20T05:05:32.936Z,20.59
2022-08-20T05:10:32.895Z,20.65
2022-08-20T05:15:32.830Z,20.81
2022-08-20T05:20:32.765Z,20.66
2022-08-20T05:25:32.650Z,20.72
2022-08-20T05:30:32.615Z,20.77
2022-08-20T05:35:32.530Z,20.67
2022-08-20T05:40:32.479Z,20.63
2022-08-20T05:45:32.382Z,20.62
2022-08-20T05:50:32.335Z,20.59
2022-08-20T05:55:32.247Z,20.60
2022-08-20T06:00:32.233Z,20.56
2022-08-20T06:05:32.122Z,20.47
2022-08-20T06:10:32.098Z,20.58
2022-08-20T06:15:32.001Z,20.69
2022-08-20T06:20:31.950Z,20.66
2022-08-20T06:25:36.089Z,20.60
2022-08-20T06:30:32.920Z,20.62
2022-08-20T06:35:32.057Z,20.60
2022-08-20T06:40:33.467Z,20.56
2022-08-20T06:45:31.584Z,20.67
2022-08-20T06:50:31.510Z,20.87
2022-08-20T06:55:31.482Z,20.88
2022-08-20T07:00:31.378Z,20.69
2022-08-20T07:05:31.297Z,20.72
2022-08-20T07:10:31.262Z,21.24
2022-08-20T07:15:31.192Z,21.96
2022-08-20T07:20:31.092Z,22.78
2022-08-20T07:25:31.056Z,23.68
2022-08-20T07:30:30.983Z,23.78
2022-08-20T07:35:30.898Z,24.16
2022-08-20T07:40:30.916Z,25.22
2022-08-20T07:45:30.794Z,24.53
2022-08-20T07:50:30.693Z,23.96
2022-08-20T07:55:30.675Z,23.54
2022-08-20T08:00:30.630Z,23.87
2022-08-20T08:05:30.499Z,25.80
2022-08-20T08:10:30.458Z,24.92
2022-08-20T08:15:30.407Z,24.36
2022-08-20T08:20:30.335Z,26.40
2022-08-20T08:25:30.255Z,25.54
2022-08-20T08:30:30.195Z,27.00
2022-08-20T08:35:30.153Z,27.33
2022-08-20T08:40:30.043Z,26.28
2022-08-20T08:45:30.011Z,25.32
2022-08-20T08:50:53.396Z,26.45
2022-08-20T08:55:30.863Z,30.84
2022-08-20T09:00:29.809Z,33.01
2022-08-20T09:05:29.747Z,33.24
2022-08-20T09:10:29.762Z,33.74
2022-08-20T09:15:29.585Z,34.48
2022-08-20T09:20:29.683Z,34.73
2022-08-20T09:25:29.463Z,35.63
2022-08-20T09:30:29.449Z,35.14
2022-08-20T09:35:29.418Z,36.58
2022-08-20T09:40:29.344Z,31.20
2022-08-20T09:45:29.254Z,27.85
2022-08-20T09:50:29.221Z,31.24
2022-08-20T09:55:29.112Z,33.99
2022-08-20T10:00:29.054Z,33.65
2022-08-20T10:05:28.979Z,34.02
2022-08-20T10:10:28.946Z,34.75
2022-08-20T10:15:28.876Z,35.51
2022-08-20T10:20:28.786Z,31.10
2022-08-20T10:25:28.714Z,32.40
2022-08-20T10:30:28.673Z,34.23
2022-08-20T10:35:28.617Z,36.04
2022-08-20T10:40:28.538Z,32.78
2022-08-20T10:45:28.498Z,35.33
2022-08-20T10:50:30.539Z,32.60
2022-08-20T10:55:28.346Z,30.96
2022-08-20T11:00:28.268Z,33.77
2022-08-20T11:05:28.217Z,33.52
2022-08-20T11:10:28.137Z,31.00
2022-08-20T11:15:28.096Z,30.57
2022-08-20T11:20:28.029Z,33.69
2022-08-20T11:25:28.033Z,34.06
2022-08-20T11:30:27.950Z,33.74
2022-08-20T11:35:48.135Z,34.39
2022-08-20T11:40:28.810Z,34.30
2022-08-20T11:45:27.707Z,31.69
2022-08-20T11:50:27.696Z,33.07
2022-08-20T11:55:30.148Z,33.64
2022-08-20T12:00:31.917Z,33.62
2022-08-20T12:05:28.456Z,34.30
2022-08-20T12:10:27.430Z,33.08
2022-08-20T12:15:27.351Z,30.84
2022-08-20T12:20:27.325Z,31.69
2022-08-20T12:25:27.611Z,31.66
2022-08-20T12:30:27.164Z,32.77
2022-08-20T12:35:27.090Z,32.68
2022-08-20T12:40:32.865Z,32.65
2022-08-20T12:45:27.978Z,31.46
2022-08-20T12:50:31.266Z,31.09
2022-08-20T12:55:26.823Z,31.18
2022-08-20T13:00:26.748Z,31.51
2022-08-20T13:05:26.686Z,29.82
2022-08-20T13:10:26.762Z,28.81
2022-08-20T13:15:26.816Z,29.27
2022-08-20T13:20:26.499Z,29.07
2022-08-20T13:25:27.482Z,29.61
2022-08-20T13:30:26.366Z,30.09
2022-08-20T13:35:26.327Z,30.05
2022-08-20T13:40:26.250Z,29.61
2022-08-20T13:45:26.230Z,28.81
2022-08-20T13:50:26.130Z,29.12
2022-08-20T13:55:26.109Z,29.26
2022-08-20T14:00:31.771Z,29.49
2022-08-20T14:05:26.971Z,29.34
2022-08-20T14:10:25.859Z,28.75
2022-08-20T14:15:25.826Z,28.64
2022-08-20T14:20:25.747Z,28.32
2022-08-20T14:25:25.735Z,28.44
2022-08-20T14:30:25.978Z,28.26
2022-08-20T14:35:25.547Z,28.10
2022-08-20T14:40:25.459Z,28.23
2022-08-20T14:45:25.520Z,28.05
2022-08-20T14:50:25.358Z,27.98
2022-08-20T14:55:25.277Z,27.87
2022-08-20T15:00:25.234Z,27.60
2022-08-20T15:05:25.166Z,27.39
2022-08-20T15:10:25.080Z,27.37
2022-08-20T15:15:25.019Z,27.44
2022-08-20T15:20:25.033Z,27.63
2022-08-20T15:25:24.942Z,27.33
2022-08-20T15:30:24.828Z,27.45
2022-08-20T15:35:24.812Z,27.12
2022-08-20T15:40:28.064Z,26.90
2022-08-20T15:45:24.622Z,26.93
2022-08-20T15:50:24.570Z,26.92
2022-08-20T15:55:24.506Z,27.03
2022-08-20T16:00:24.442Z,27.02
2022-08-20T16:05:24.361Z,26.71
2022-08-20T16:10:24.310Z,26.74
2022-08-20T16:15:24.231Z,26.68
2022-08-20T16:20:24.176Z,26.63
2022-08-20T16:25:24.247Z,26.10
2022-08-20T16:30:24.051Z,26.07
2022-08-20T16:35:27.609Z,26.05
2022-08-20T16:40:24.987Z,26.03
2022-08-20T16:45:23.879Z,26.09
2022-08-20T16:50:23.769Z,25.99
2022-08-20T16:55:23.747Z,25.87
2022-08-20T17:00:23.641Z,25.78
2022-08-20T17:05:23.585Z,25.63
2022-08-20T17:10:23.515Z,25.48
2022-08-20T17:15:23.455Z,25.38
2022-08-20T17:20:23.394Z,25.38
2022-08-20T17:25:23.333Z,25.18
2022-08-20T17:30:23.263Z,25.04
2022-08-20T17:35:23.202Z,24.81
2022-08-20T17:40:23.201Z,24.74
2022-08-20T17:45:23.076Z,24.60
2022-08-20T17:50:23.002Z,24.48
2022-08-20T17:55:22.907Z,24.38
2022-08-20T18:00:22.861Z,24.17
2022-08-20T18:05:22.810Z,23.93
2022-08-20T18:10:22.723Z,23.80
2022-08-20T18:15:24.646Z,23.66
2022-08-20T18:20:22.602Z,23.54
2022-08-20T18:25:22.517Z,23.37
2022-08-20T18:30:22.464Z,23.15
2022-08-20T18:35:22.416Z,22.91
2022-08-20T18:40:22.375Z,22.68
2022-08-20T18:45:22.252Z,22.41
2022-08-20T18:50:22.208Z,22.22
2022-08-20T18:55:22.149Z,22.07
2022-08-20T19:00:22.064Z,21.95
2022-08-20T19:05:22.028Z,21.83
2022-08-20T19:10:28.088Z,21.82
2022-08-20T19:15:22.893Z,21.72
2022-08-20T19:20:21.795Z,21.58
2022-08-20T19:25:21.741Z,21.48
2022-08-20T19:30:21.697Z,21.40
2022-08-20T19:35:21.587Z,21.35
2022-08-20T19:40:21.619Z,21.25
2022-08-20T19:45:21.493Z,21.18
2022-08-20T19:50:21.398Z,21.15
2022-08-20T19:55:21.367Z,21.12
2022-08-20T20:00:21.255Z,21.14
2022-08-20T20:05:21.209Z,21.17
2022-08-20T20:10:21.139Z,21.14
2022-08-20T20:15:21.058Z,21.09
2022-08-20T20:20:21.017Z,21.05
2022-08-20T20:25:20.942Z,21.00
2022-08-20T20:30:20.855Z,20.96
2022-08-20T20:35:20.813Z,20.84
2022-08-20T20:40:20.914Z,20.78
2022-08-20T20:45:20.663Z,20.75
2022-08-20T20:50:20.639Z,20.67
2022-08-20T20:55:20.568Z,20.52
2022-08-20T21:00:20.455Z,20.39
2022-08-20T21:05:20.499Z,20.29
2022-08-20T21:10:20.442Z,20.24
2022-08-20T21:15:20.337Z,20.19
2022-08-20T21:20:20.281Z,20.19
2022-08-20T21:25:20.218Z,20.11
2022-08-20T21:30:20.138Z,20.00
2022-08-20T21:35:19.995Z,19.95
2022-08-20T21:40:21.686Z,19.88
2022-08-20T21:45:19.922Z,19.74
2022-08-20T21:50:19.813Z,19.55
2022-08-20T21:55:19.759Z,19.30
2022-08-20T22:00:19.692Z,18.95
2022-08-20T22:05:19.641Z,18.75
2022-08-20T22:10:19.554Z,18.52
2022-08-20T22:15:19.541Z,18.49
2022-08-20T22:20:19.482Z,18.58
2022-08-20T22:25:19.445Z,18.56
2022-08-20T22:30:19.285Z,18.43
2022-08-20T22:35:19.259Z,18.33
2022-08-20T22:40:19.256Z,18.25
2022-08-20T22:45:19.085Z,18.13
2022-08-20T22:50:19.021Z,18.18
2022-08-20T22:55:18.965Z,18.18
2022-08-20T23:00:18.868Z,18.15
2022-08-20T23:05:18.911Z,18.11
2022-08-20T23:10:18.732Z,18.07
2022-08-20T23:15:18.697Z,18.05
2022-08-20T23:20:18.657Z,18.05
2022-08-20T23:25:18.551Z,17.98
2022-08-20T23:30:18.532Z,17.86
2022-08-20T23:35:18.447Z,17.74
2022-08-20T23:40:18.424Z,17.68
2022-08-20T23:45:29.511Z,17.54
2022-08-20T23:50:20.460Z,17.27
2022-08-20T23:55:20.481Z,17.29
